sensor_id;sensor_type;location;lat;lon;timestamp;P1;durP1;ratioP1;P2;durP2;ratioP2
67696;SDS011;54486;51.442;6.778;2023-08-07T00:00:43;7.70;;;2.20;;
67696;SDS011;54486;51.442;6.778;2023-08-07T00:03:11;8.23;;;2.00;;
67696;SDS011;54486;51.442;6.778;2023-08-07T00:05:45;8.85;;;2.00;;
67696;SDS011;54486;51.442;6.778;2023-08-07T00:08:13;7.80;;;2.28;;
67696;SDS011;54486;51.442;6.778;2023-08-07T00:10:40;12.07;;;2.28;;
67696;SDS011;54486;51.442;6.778;2023-08-07T00:13:08;9.35;;;2.15;;
67696;SDS011;54486;51.442;6.778;2023-08-07T00:15:37;8.43;;;2.10;;
67696;SDS011;54486;51.442;6.778;2023-08-07T00:18:05;11.77;;;2.35;;
67696;SDS011;54486;51.442;6.778;2023-08-07T00:20:32;10.03;;;2.10;;
67696;SDS011;54486;51.442;6.778;2023-08-07T00:22:59;11.02;;;2.20;;
67696;SDS011;54486;51.442;6.778;2023-08-07T00:25:27;9.65;;;2.05;;
67696;SDS011;54486;51.442;6.778;2023-08-07T00:27:55;8.52;;;1.83;;
67696;SDS011;54486;51.442;6.778;2023-08-07T00:30:22;7.97;;;1.70;;
67696;SDS011;54486;51.442;6.778;2023-08-07T00:32:49;8.18;;;2.33;;
67696;SDS011;54486;51.442;6.778;2023-08-07T00:35:16;10.25;;;2.13;;
67696;SDS011;54486;51.442;6.778;2023-08-07T00:37:43;9.15;;;2.33;;
67696;SDS011;54486;51.442;6.778;2023-08-07T00:40:11;9.77;;;2.00;;
67696;SDS011;54486;51.442;6.778;2023-08-07T00:42:38;11.27;;;1.85;;
67696;SDS011;54486;51.442;6.778;2023-08-07T00:45:05;9.18;;;2.08;;
67696;SDS011;54486;51.442;6.778;2023-08-07T00:47:35;7.90;;;2.00;;
67696;SDS011;54486;51.442;6.778;2023-08-07T00:50:04;9.02;;;1.90;;
67696;SDS011;54486;51.442;6.778;2023-08-07T00:52:32;10.43;;;1.80;;
67696;SDS011;54486;51.442;6.778;2023-08-07T00:54:59;9.75;;;2.25;;
67696;SDS011;54486;51.442;6.778;2023-08-07T00:57:27;9.48;;;1.98;;
67696;SDS011;54486;51.442;6.778;2023-08-07T00:59:54;10.05;;;1.70;;
67696;SDS011;54486;51.442;6.778;2023-08-07T01:02:21;9.15;;;1.90;;
67696;SDS011;54486;51.442;6.778;2023-08-07T01:04:49;9.38;;;2.20;;
67696;SDS011;54486;51.442;6.778;2023-08-07T01:07:17;10.07;;;2.08;;
67696;SDS011;54486;51.442;6.778;2023-08-07T01:09:44;10.15;;;2.38;;
67696;SDS011;54486;51.442;6.778;2023-08-07T01:12:15;11.98;;;2.70;;
67696;SDS011;54486;51.442;6.778;2023-08-07T01:17:49;12.45;;;3.30;;
67696;SDS011;54486;51.442;6.778;2023-08-07T01:20:17;12.85;;;3.33;;
67696;SDS011;54486;51.442;6.778;2023-08-07T01:22:45;11.65;;;2.67;;
67696;SDS011;54486;51.442;6.778;2023-08-07T01:25:12;11.20;;;2.83;;
67696;SDS011;54486;51.442;6.778;2023-08-07T01:27:42;9.68;;;2.50;;
67696;SDS011;54486;51.442;6.778;2023-08-07T01:30:17;12.23;;;2.75;;
67696;SDS011;54486;51.442;6.778;2023-08-07T01:35:27;10.90;;;2.40;;
67696;SDS011;54486;51.442;6.778;2023-08-07T01:37:57;10.45;;;2.40;;
67696;SDS011;54486;51.442;6.778;2023-08-07T01:40:27;11.83;;;2.43;;
67696;SDS011;54486;51.442;6.778;2023-08-07T01:42:55;11.10;;;2.53;;
67696;SDS011;54486;51.442;6.778;2023-08-07T01:45:23;9.10;;;2.33;;
67696;SDS011;54486;51.442;6.778;2023-08-07T01:47:55;9.83;;;2.30;;
67696;SDS011;54486;51.442;6.778;2023-08-07T01:50:23;9.88;;;2.17;;
67696;SDS011;54486;51.442;6.778;2023-08-07T01:52:51;8.93;;;2.20;;
67696;SDS011;54486;51.442;6.778;2023-08-07T01:55:20;9.88;;;2.40;;
67696;SDS011;54486;51.442;6.778;2023-08-07T01:57:48;8.65;;;2.22;;
67696;SDS011;54486;51.442;6.778;2023-08-07T02:00:15;11.20;;;2.40;;
67696;SDS011;54486;51.442;6.778;2023-08-07T02:02:42;9.70;;;2.60;;
67696;SDS011;54486;51.442;6.778;2023-08-07T02:05:11;11.45;;;2.50;;
67696;SDS011;54486;51.442;6.778;2023-08-07T02:07:38;8.77;;;2.05;;
67696;SDS011;54486;51.442;6.778;2023-08-07T02:10:05;8.50;;;2.10;;
67696;SDS011;54486;51.442;6.778;2023-08-07T02:12:33;7.72;;;2.08;;
67696;SDS011;54486;51.442;6.778;2023-08-07T02:15:00;9.90;;;2.25;;
67696;SDS011;54486;51.442;6.778;2023-08-07T02:17:28;13.23;;;2.75;;
67696;SDS011;54486;51.442;6.778;2023-08-07T02:19:59;9.45;;;2.40;;
67696;SDS011;54486;51.442;6.778;2023-08-07T02:22:27;13.20;;;2.60;;
67696;SDS011;54486;51.442;6.778;2023-08-07T02:24:55;9.88;;;2.22;;
67696;SDS011;54486;51.442;6.778;2023-08-07T02:27:22;8.15;;;2.10;;
67696;SDS011;54486;51.442;6.778;2023-08-07T02:29:49;10.17;;;2.17;;
67696;SDS011;54486;51.442;6.778;2023-08-07T02:32:17;8.50;;;2.13;;
67696;SDS011;54486;51.442;6.778;2023-08-07T02:34:44;9.10;;;2.30;;
67696;SDS011;54486;51.442;6.778;2023-08-07T02:37:11;8.35;;;2.45;;
67696;SDS011;54486;51.442;6.778;2023-08-07T02:39:39;7.53;;;1.97;;
67696;SDS011;54486;51.442;6.778;2023-08-07T02:42:06;10.15;;;2.10;;
67696;SDS011;54486;51.442;6.778;2023-08-07T02:44:33;8.57;;;2.10;;
67696;SDS011;54486;51.442;6.778;2023-08-07T02:47:00;8.63;;;2.13;;
67696;SDS011;54486;51.442;6.778;2023-08-07T02:49:27;9.05;;;2.30;;
67696;SDS011;54486;51.442;6.778;2023-08-07T02:51:55;8.50;;;2.47;;
67696;SDS011;54486;51.442;6.778;2023-08-07T02:54:22;12.73;;;2.53;;
67696;SDS011;54486;51.442;6.778;2023-08-07T02:56:49;14.68;;;2.72;;
67696;SDS011;54486;51.442;6.778;2023-08-07T02:59:17;10.48;;;2.53;;
67696;SDS011;54486;51.442;6.778;2023-08-07T03:01:44;11.40;;;3.08;;
67696;SDS011;54486;51.442;6.778;2023-08-07T03:04:11;12.15;;;2.90;;
67696;SDS011;54486;51.442;6.778;2023-08-07T03:06:38;11.95;;;2.83;;
67696;SDS011;54486;51.442;6.778;2023-08-07T03:09:05;12.40;;;2.95;;
67696;SDS011;54486;51.442;6.778;2023-08-07T03:11:32;12.00;;;2.90;;
67696;SDS011;54486;51.442;6.778;2023-08-07T03:13:59;12.60;;;3.10;;
67696;SDS011;54486;51.442;6.778;2023-08-07T03:16:26;11.15;;;3.35;;
67696;SDS011;54486;51.442;6.778;2023-08-07T03:18:54;11.33;;;3.03;;
67696;SDS011;54486;51.442;6.778;2023-08-07T03:21:21;11.73;;;3.00;;
67696;SDS011;54486;51.442;6.778;2023-08-07T03:23:48;9.25;;;2.78;;
67696;SDS011;54486;51.442;6.778;2023-08-07T03:26:15;12.50;;;2.72;;
67696;SDS011;54486;51.442;6.778;2023-08-07T03:28:46;11.00;;;2.60;;
67696;SDS011;54486;51.442;6.778;2023-08-07T03:31:14;15.60;;;3.00;;
67696;SDS011;54486;51.442;6.778;2023-08-07T03:33:42;9.82;;;2.67;;
67696;SDS011;54486;51.442;6.778;2023-08-07T03:36:09;13.57;;;2.88;;
67696;SDS011;54486;51.442;6.778;2023-08-07T03:38:37;12.18;;;2.90;;
67696;SDS011;54486;51.442;6.778;2023-08-07T03:41:05;12.25;;;3.28;;
67696;SDS011;54486;51.442;6.778;2023-08-07T03:43:31;14.43;;;3.38;;
67696;SDS011;54486;51.442;6.778;2023-08-07T03:45:59;13.23;;;3.10;;
67696;SDS011;54486;51.442;6.778;2023-08-07T03:48:29;13.82;;;3.15;;
67696;SDS011;54486;51.442;6.778;2023-08-07T03:51:04;12.65;;;2.67;;
67696;SDS011;54486;51.442;6.778;2023-08-07T03:53:32;11.30;;;3.20;;
67696;SDS011;54486;51.442;6.778;2023-08-07T03:55:59;11.45;;;2.50;;
67696;SDS011;54486;51.442;6.778;2023-08-07T03:58:27;11.40;;;3.03;;
67696;SDS011;54486;51.442;6.778;2023-08-07T04:00:55;13.77;;;2.95;;
67696;SDS011;54486;51.442;6.778;2023-08-07T04:03:22;11.55;;;2.92;;
67696;SDS011;54486;51.442;6.778;2023-08-07T04:05:52;13.75;;;3.25;;
67696;SDS011;54486;51.442;6.778;2023-08-07T04:08:21;10.80;;;2.75;;
67696;SDS011;54486;51.442;6.778;2023-08-07T04:11:00;10.73;;;2.40;;
67696;SDS011;54486;51.442;6.778;2023-08-07T04:13:29;10.05;;;2.80;;
67696;SDS011;54486;51.442;6.778;2023-08-07T04:15:57;11.03;;;2.67;;
67696;SDS011;54486;51.442;6.778;2023-08-07T04:18:25;11.57;;;2.95;;
67696;SDS011;54486;51.442;6.778;2023-08-07T04:20:53;11.82;;;2.90;;
67696;SDS011;54486;51.442;6.778;2023-08-07T04:23:21;11.80;;;2.70;;
67696;SDS011;54486;51.442;6.778;2023-08-07T04:25:49;13.32;;;3.10;;
67696;SDS011;54486;51.442;6.778;2023-08-07T04:28:17;13.63;;;2.85;;
67696;SDS011;54486;51.442;6.778;2023-08-07T04:30:48;13.57;;;3.30;;
67696;SDS011;54486;51.442;6.778;2023-08-07T04:33:20;12.20;;;3.28;;
67696;SDS011;54486;51.442;6.778;2023-08-07T04:35:48;12.75;;;3.28;;
67696;SDS011;54486;51.442;6.778;2023-08-07T04:38:15;11.80;;;3.10;;
67696;SDS011;54486;51.442;6.778;2023-08-07T04:40:47;9.15;;;2.53;;
67696;SDS011;54486;51.442;6.778;2023-08-07T04:43:18;13.40;;;3.05;;
67696;SDS011;54486;51.442;6.778;2023-08-07T04:45:48;11.40;;;2.90;;
67696;SDS011;54486;51.442;6.778;2023-08-07T04:48:16;10.45;;;2.63;;
67696;SDS011;54486;51.442;6.778;2023-08-07T04:50:45;10.38;;;2.53;;
67696;SDS011;54486;51.442;6.778;2023-08-07T04:53:12;11.25;;;3.08;;
67696;SDS011;54486;51.442;6.778;2023-08-07T04:55:39;12.48;;;3.05;;
67696;SDS011;54486;51.442;6.778;2023-08-07T04:58:07;10.77;;;2.63;;
67696;SDS011;54486;51.442;6.778;2023-08-07T05:00:35;10.30;;;2.60;;
67696;SDS011;54486;51.442;6.778;2023-08-07T05:03:04;11.05;;;2.80;;
67696;SDS011;54486;51.442;6.778;2023-08-07T05:05:32;11.38;;;2.60;;
67696;SDS011;54486;51.442;6.778;2023-08-07T05:07:58;12.87;;;2.50;;
67696;SDS011;54486;51.442;6.778;2023-08-07T05:10:26;11.23;;;2.50;;
67696;SDS011;54486;51.442;6.778;2023-08-07T05:12:53;13.30;;;3.60;;
67696;SDS011;54486;51.442;6.778;2023-08-07T05:15:23;11.52;;;2.83;;
67696;SDS011;54486;51.442;6.778;2023-08-07T05:17:51;12.20;;;3.00;;
67696;SDS011;54486;51.442;6.778;2023-08-07T05:20:19;13.83;;;2.77;;
67696;SDS011;54486;51.442;6.778;2023-08-07T05:22:47;13.38;;;3.20;;
67696;SDS011;54486;51.442;6.778;2023-08-07T05:25:14;14.45;;;2.85;;
67696;SDS011;54486;51.442;6.778;2023-08-07T05:27:43;13.80;;;3.17;;
67696;SDS011;54486;51.442;6.778;2023-08-07T05:30:11;10.73;;;2.80;;
67696;SDS011;54486;51.442;6.778;2023-08-07T05:32:39;9.60;;;2.80;;
67696;SDS011;54486;51.442;6.778;2023-08-07T05:35:07;11.65;;;3.33;;
67696;SDS011;54486;51.442;6.778;2023-08-07T05:37:35;12.27;;;2.80;;
67696;SDS011;54486;51.442;6.778;2023-08-07T05:40:02;12.57;;;3.30;;
67696;SDS011;54486;51.442;6.778;2023-08-07T05:42:30;11.88;;;2.92;;
67696;SDS011;54486;51.442;6.778;2023-08-07T05:44:57;11.25;;;3.35;;
67696;SDS011;54486;51.442;6.778;2023-08-07T05:47:25;11.57;;;2.88;;
67696;SDS011;54486;51.442;6.778;2023-08-07T05:49:53;14.18;;;2.90;;
67696;SDS011;54486;51.442;6.778;2023-08-07T05:52:19;11.33;;;3.00;;
67696;SDS011;54486;51.442;6.778;2023-08-07T05:54:47;11.18;;;3.00;;
67696;SDS011;54486;51.442;6.778;2023-08-07T05:57:15;11.52;;;3.20;;
67696;SDS011;54486;51.442;6.778;2023-08-07T05:59:43;10.88;;;3.35;;
67696;SDS011;54486;51.442;6.778;2023-08-07T06:02:10;15.15;;;3.90;;
67696;SDS011;54486;51.442;6.778;2023-08-07T06:04:38;10.70;;;3.60;;
67696;SDS011;54486;51.442;6.778;2023-08-07T06:07:07;11.23;;;3.00;;
67696;SDS011;54486;51.442;6.778;2023-08-07T06:09:35;14.02;;;3.30;;
67696;SDS011;54486;51.442;6.778;2023-08-07T06:12:02;13.50;;;3.45;;
67696;SDS011;54486;51.442;6.778;2023-08-07T06:14:30;11.50;;;3.00;;
67696;SDS011;54486;51.442;6.778;2023-08-07T06:16:57;12.50;;;3.03;;
67696;SDS011;54486;51.442;6.778;2023-08-07T06:19:24;11.05;;;3.00;;
67696;SDS011;54486;51.442;6.778;2023-08-07T06:21:59;11.45;;;3.05;;
67696;SDS011;54486;51.442;6.778;2023-08-07T06:24:27;10.90;;;2.83;;
67696;SDS011;54486;51.442;6.778;2023-08-07T06:26:55;10.55;;;2.80;;
67696;SDS011;54486;51.442;6.778;2023-08-07T06:29:22;11.33;;;3.20;;
67696;SDS011;54486;51.442;6.778;2023-08-07T06:31:49;10.95;;;3.05;;
67696;SDS011;54486;51.442;6.778;2023-08-07T06:34:17;12.60;;;2.75;;
67696;SDS011;54486;51.442;6.778;2023-08-07T06:36:44;10.38;;;2.90;;
67696;SDS011;54486;51.442;6.778;2023-08-07T06:39:11;9.57;;;2.63;;
67696;SDS011;54486;51.442;6.778;2023-08-07T06:41:38;11.02;;;3.17;;
67696;SDS011;54486;51.442;6.778;2023-08-07T06:44:06;9.15;;;2.50;;
67696;SDS011;54486;51.442;6.778;2023-08-07T06:46:34;10.65;;;3.13;;
67696;SDS011;54486;51.442;6.778;2023-08-07T06:49:01;9.88;;;2.92;;
67696;SDS011;54486;51.442;6.778;2023-08-07T06:51:29;13.10;;;3.33;;
67696;SDS011;54486;51.442;6.778;2023-08-07T06:53:56;10.55;;;2.97;;
67696;SDS011;54486;51.442;6.778;2023-08-07T06:56:24;11.88;;;3.15;;
67696;SDS011;54486;51.442;6.778;2023-08-07T06:58:51;9.18;;;2.60;;
67696;SDS011;54486;51.442;6.778;2023-08-07T07:01:18;12.10;;;3.83;;
67696;SDS011;54486;51.442;6.778;2023-08-07T07:03:45;11.15;;;3.20;;
67696;SDS011;54486;51.442;6.778;2023-08-07T07:06:14;9.45;;;2.70;;
67696;SDS011;54486;51.442;6.778;2023-08-07T07:08:41;11.93;;;3.20;;
67696;SDS011;54486;51.442;6.778;2023-08-07T07:11:08;12.75;;;3.00;;
67696;SDS011;54486;51.442;6.778;2023-08-07T07:13:37;10.23;;;2.83;;
67696;SDS011;54486;51.442;6.778;2023-08-07T07:16:04;12.45;;;3.00;;
67696;SDS011;54486;51.442;6.778;2023-08-07T07:18:32;10.75;;;3.20;;
67696;SDS011;54486;51.442;6.778;2023-08-07T07:21:00;12.73;;;2.90;;
67696;SDS011;54486;51.442;6.778;2023-08-07T07:23:27;8.82;;;2.75;;
67696;SDS011;54486;51.442;6.778;2023-08-07T07:25:55;9.10;;;2.58;;
67696;SDS011;54486;51.442;6.778;2023-08-07T07:28:24;11.32;;;2.90;;
67696;SDS011;54486;51.442;6.778;2023-08-07T07:30:51;9.07;;;2.65;;
67696;SDS011;54486;51.442;6.778;2023-08-07T07:33:18;10.63;;;2.80;;
67696;SDS011;54486;51.442;6.778;2023-08-07T07:35:45;10.45;;;3.05;;
67696;SDS011;54486;51.442;6.778;2023-08-07T07:38:13;10.00;;;2.58;;
67696;SDS011;54486;51.442;6.778;2023-08-07T07:40:42;9.48;;;2.60;;
67696;SDS011;54486;51.442;6.778;2023-08-07T07:43:09;10.43;;;2.85;;
67696;SDS011;54486;51.442;6.778;2023-08-07T07:45:37;11.13;;;2.70;;
67696;SDS011;54486;51.442;6.778;2023-08-07T07:48:04;11.13;;;2.60;;
67696;SDS011;54486;51.442;6.778;2023-08-07T07:50:33;10.88;;;2.95;;
67696;SDS011;54486;51.442;6.778;2023-08-07T07:53:00;11.05;;;3.00;;
67696;SDS011;54486;51.442;6.778;2023-08-07T07:55:27;9.50;;;3.05;;
67696;SDS011;54486;51.442;6.778;2023-08-07T07:57:55;9.75;;;3.00;;
67696;SDS011;54486;51.442;6.778;2023-08-07T08:00:22;10.15;;;2.50;;
67696;SDS011;54486;51.442;6.778;2023-08-07T08:02:54;9.35;;;3.10;;
67696;SDS011;54486;51.442;6.778;2023-08-07T08:05:21;10.63;;;2.90;;
67696;SDS011;54486;51.442;6.778;2023-08-07T08:07:48;10.27;;;2.65;;
67696;SDS011;54486;51.442;6.778;2023-08-07T08:10:15;10.75;;;3.00;;
67696;SDS011;54486;51.442;6.778;2023-08-07T08:12:42;9.48;;;2.63;;
67696;SDS011;54486;51.442;6.778;2023-08-07T08:15:10;10.98;;;2.83;;
67696;SDS011;54486;51.442;6.778;2023-08-07T08:17:37;11.65;;;3.10;;
67696;SDS011;54486;51.442;6.778;2023-08-07T08:20:06;9.98;;;2.97;;
67696;SDS011;54486;51.442;6.778;2023-08-07T08:22:34;11.50;;;2.80;;
67696;SDS011;54486;51.442;6.778;2023-08-07T08:25:02;9.57;;;2.60;;
67696;SDS011;54486;51.442;6.778;2023-08-07T08:27:31;10.65;;;2.63;;
67696;SDS011;54486;51.442;6.778;2023-08-07T08:29:58;9.40;;;2.60;;
67696;SDS011;54486;51.442;6.778;2023-08-07T08:32:25;8.57;;;2.22;;
67696;SDS011;54486;51.442;6.778;2023-08-07T08:34:53;10.15;;;2.47;;
67696;SDS011;54486;51.442;6.778;2023-08-07T08:37:20;11.23;;;2.33;;
67696;SDS011;54486;51.442;6.778;2023-08-07T08:39:48;9.27;;;2.38;;
67696;SDS011;54486;51.442;6.778;2023-08-07T08:42:15;10.57;;;2.95;;
67696;SDS011;54486;51.442;6.778;2023-08-07T08:45:02;9.88;;;2.80;;
67696;SDS011;54486;51.442;6.778;2023-08-07T08:47:31;9.43;;;2.65;;
67696;SDS011;54486;51.442;6.778;2023-08-07T08:50:09;9.83;;;2.37;;
67696;SDS011;54486;51.442;6.778;2023-08-07T08:52:42;8.23;;;2.22;;
67696;SDS011;54486;51.442;6.778;2023-08-07T08:55:11;9.25;;;2.55;;
67696;SDS011;54486;51.442;6.778;2023-08-07T08:57:39;10.07;;;2.70;;
67696;SDS011;54486;51.442;6.778;2023-08-07T09:00:08;11.57;;;2.40;;
67696;SDS011;54486;51.442;6.778;2023-08-07T09:02:48;9.90;;;2.40;;
67696;SDS011;54486;51.442;6.778;2023-08-07T09:05:15;10.43;;;2.50;;
67696;SDS011;54486;51.442;6.778;2023-08-07T09:07:44;7.83;;;2.50;;
67696;SDS011;54486;51.442;6.778;2023-08-07T09:10:13;9.98;;;2.58;;
67696;SDS011;54486;51.442;6.778;2023-08-07T09:12:42;10.50;;;3.07;;
67696;SDS011;54486;51.442;6.778;2023-08-07T09:15:24;8.23;;;2.70;;
67696;SDS011;54486;51.442;6.778;2023-08-07T09:17:52;10.13;;;2.83;;
67696;SDS011;54486;51.442;6.778;2023-08-07T09:20:22;12.98;;;3.00;;
67696;SDS011;54486;51.442;6.778;2023-08-07T09:22:49;10.73;;;3.35;;
67696;SDS011;54486;51.442;6.778;2023-08-07T09:25:32;13.18;;;3.17;;
67696;SDS011;54486;51.442;6.778;2023-08-07T09:28:01;10.82;;;3.30;;
67696;SDS011;54486;51.442;6.778;2023-08-07T09:30:36;9.07;;;2.63;;
67696;SDS011;54486;51.442;6.778;2023-08-07T09:33:04;11.38;;;3.03;;
67696;SDS011;54486;51.442;6.778;2023-08-07T09:35:33;9.70;;;2.75;;
67696;SDS011;54486;51.442;6.778;2023-08-07T09:38:01;9.63;;;3.10;;
67696;SDS011;54486;51.442;6.778;2023-08-07T09:40:29;9.30;;;2.43;;
67696;SDS011;54486;51.442;6.778;2023-08-07T09:42:57;9.30;;;2.42;;
67696;SDS011;54486;51.442;6.778;2023-08-07T09:45:26;9.77;;;2.85;;
67696;SDS011;54486;51.442;6.778;2023-08-07T09:47:56;9.63;;;2.60;;
67696;SDS011;54486;51.442;6.778;2023-08-07T09:50:23;10.32;;;2.78;;
67696;SDS011;54486;51.442;6.778;2023-08-07T09:52:51;9.35;;;2.53;;
67696;SDS011;54486;51.442;6.778;2023-08-07T09:55:18;10.35;;;2.50;;
67696;SDS011;54486;51.442;6.778;2023-08-07T09:57:45;14.60;;;2.90;;
67696;SDS011;54486;51.442;6.778;2023-08-07T10:00:13;11.10;;;4.20;;
67696;SDS011;54486;51.442;6.778;2023-08-07T10:02:42;10.90;;;2.60;;
67696;SDS011;54486;51.442;6.778;2023-08-07T10:05:10;10.65;;;2.92;;
67696;SDS011;54486;51.442;6.778;2023-08-07T10:07:37;10.15;;;3.00;;
67696;SDS011;54486;51.442;6.778;2023-08-07T10:10:06;9.57;;;2.60;;
67696;SDS011;54486;51.442;6.778;2023-08-07T10:12:34;11.90;;;2.77;;
67696;SDS011;54486;51.442;6.778;2023-08-07T10:15:04;10.93;;;2.80;;
67696;SDS011;54486;51.442;6.778;2023-08-07T10:17:31;10.80;;;2.40;;
67696;SDS011;54486;51.442;6.778;2023-08-07T10:19:59;9.15;;;2.65;;
67696;SDS011;54486;51.442;6.778;2023-08-07T10:22:33;12.18;;;2.75;;
67696;SDS011;54486;51.442;6.778;2023-08-07T10:25:05;12.38;;;2.83;;
67696;SDS011;54486;51.442;6.778;2023-08-07T10:27:38;9.93;;;2.80;;
67696;SDS011;54486;51.442;6.778;2023-08-07T10:30:09;12.17;;;2.57;;
67696;SDS011;54486;51.442;6.778;2023-08-07T10:32:42;8.73;;;2.42;;
67696;SDS011;54486;51.442;6.778;2023-08-07T10:35:22;10.95;;;2.53;;
67696;SDS011;54486;51.442;6.778;2023-08-07T10:37:51;7.88;;;2.15;;
67696;SDS011;54486;51.442;6.778;2023-08-07T10:40:20;9.80;;;2.40;;
67696;SDS011;54486;51.442;6.778;2023-08-07T10:42:56;10.27;;;2.35;;
67696;SDS011;54486;51.442;6.778;2023-08-07T10:45:25;9.88;;;2.47;;
67696;SDS011;54486;51.442;6.778;2023-08-07T10:48:13;11.35;;;2.85;;
67696;SDS011;54486;51.442;6.778;2023-08-07T10:50:56;12.45;;;3.20;;
67696;SDS011;54486;51.442;6.778;2023-08-07T10:56:18;9.57;;;2.97;;
67696;SDS011;54486;51.442;6.778;2023-08-07T10:58:58;9.53;;;2.83;;
67696;SDS011;54486;51.442;6.778;2023-08-07T11:04:06;10.20;;;2.70;;
67696;SDS011;54486;51.442;6.778;2023-08-07T11:06:40;11.18;;;2.97;;
67696;SDS011;54486;51.442;6.778;2023-08-07T11:09:09;10.25;;;3.17;;
67696;SDS011;54486;51.442;6.778;2023-08-07T11:11:40;10.07;;;2.40;;
67696;SDS011;54486;51.442;6.778;2023-08-07T11:14:09;10.65;;;3.22;;
67696;SDS011;54486;51.442;6.778;2023-08-07T11:16:45;12.75;;;3.08;;
67696;SDS011;54486;51.442;6.778;2023-08-07T11:19:17;9.85;;;2.70;;
67696;SDS011;54486;51.442;6.778;2023-08-07T11:21:46;9.38;;;2.85;;
67696;SDS011;54486;51.442;6.778;2023-08-07T11:24:15;9.10;;;2.03;;
67696;SDS011;54486;51.442;6.778;2023-08-07T11:26:44;11.18;;;2.80;;
67696;SDS011;54486;51.442;6.778;2023-08-07T11:29:18;10.53;;;3.20;;
67696;SDS011;54486;51.442;6.778;2023-08-07T11:31:45;11.43;;;3.10;;
67696;SDS011;54486;51.442;6.778;2023-08-07T11:34:19;10.18;;;3.05;;
67696;SDS011;54486;51.442;6.778;2023-08-07T11:36:47;10.30;;;2.80;;
67696;SDS011;54486;51.442;6.778;2023-08-07T11:39:18;11.50;;;3.17;;
67696;SDS011;54486;51.442;6.778;2023-08-07T11:41:46;11.10;;;2.85;;
67696;SDS011;54486;51.442;6.778;2023-08-07T11:44:15;12.40;;;3.00;;
67696;SDS011;54486;51.442;6.778;2023-08-07T11:46:44;9.38;;;2.40;;
67696;SDS011;54486;51.442;6.778;2023-08-07T11:49:12;12.32;;;2.70;;
67696;SDS011;54486;51.442;6.778;2023-08-07T11:51:39;11.20;;;2.90;;
67696;SDS011;54486;51.442;6.778;2023-08-07T11:54:13;8.57;;;2.60;;
67696;SDS011;54486;51.442;6.778;2023-08-07T11:56:42;10.32;;;2.60;;
67696;SDS011;54486;51.442;6.778;2023-08-07T11:59:12;9.50;;;2.30;;
67696;SDS011;54486;51.442;6.778;2023-08-07T12:01:44;12.25;;;2.63;;
67696;SDS011;54486;51.442;6.778;2023-08-07T12:04:13;10.25;;;2.30;;
67696;SDS011;54486;51.442;6.778;2023-08-07T12:06:51;9.73;;;2.20;;
67696;SDS011;54486;51.442;6.778;2023-08-07T12:09:25;9.32;;;2.38;;
67696;SDS011;54486;51.442;6.778;2023-08-07T12:11:59;9.43;;;2.50;;
67696;SDS011;54486;51.442;6.778;2023-08-07T12:14:30;8.63;;;2.13;;
67696;SDS011;54486;51.442;6.778;2023-08-07T12:17:00;10.67;;;2.43;;
67696;SDS011;54486;51.442;6.778;2023-08-07T12:19:46;8.77;;;2.42;;
67696;SDS011;54486;51.442;6.778;2023-08-07T12:22:15;7.30;;;1.90;;
67696;SDS011;54486;51.442;6.778;2023-08-07T12:24:47;8.02;;;2.00;;
67696;SDS011;54486;51.442;6.778;2023-08-07T12:27:14;9.63;;;1.97;;
67696;SDS011;54486;51.442;6.778;2023-08-07T12:29:42;8.95;;;1.92;;
67696;SDS011;54486;51.442;6.778;2023-08-07T12:32:09;8.90;;;2.03;;
67696;SDS011;54486;51.442;6.778;2023-08-07T12:34:37;10.85;;;2.00;;
67696;SDS011;54486;51.442;6.778;2023-08-07T12:37:10;7.97;;;1.83;;
67696;SDS011;54486;51.442;6.778;2023-08-07T12:39:37;8.93;;;1.70;;
67696;SDS011;54486;51.442;6.778;2023-08-07T12:42:07;8.38;;;1.98;;
67696;SDS011;54486;51.442;6.778;2023-08-07T12:44:37;7.40;;;1.95;;
67696;SDS011;54486;51.442;6.778;2023-08-07T12:47:05;10.50;;;1.95;;
67696;SDS011;54486;51.442;6.778;2023-08-07T12:49:33;6.70;;;1.70;;
67696;SDS011;54486;51.442;6.778;2023-08-07T12:52:00;7.95;;;1.83;;
67696;SDS011;54486;51.442;6.778;2023-08-07T12:54:30;10.13;;;1.95;;
67696;SDS011;54486;51.442;6.778;2023-08-07T12:56:58;8.10;;;1.67;;
67696;SDS011;54486;51.442;6.778;2023-08-07T12:59:25;9.10;;;2.10;;
67696;SDS011;54486;51.442;6.778;2023-08-07T13:01:53;8.80;;;1.85;;
67696;SDS011;54486;51.442;6.778;2023-08-07T13:04:20;8.68;;;2.00;;
67696;SDS011;54486;51.442;6.778;2023-08-07T13:06:48;9.70;;;2.10;;
67696;SDS011;54486;51.442;6.778;2023-08-07T13:09:16;8.88;;;2.00;;
67696;SDS011;54486;51.442;6.778;2023-08-07T13:11:43;7.38;;;2.10;;
67696;SDS011;54486;51.442;6.778;2023-08-07T13:14:11;6.70;;;1.55;;
67696;SDS011;54486;51.442;6.778;2023-08-07T13:16:38;7.85;;;2.00;;
67696;SDS011;54486;51.442;6.778;2023-08-07T13:19:05;7.20;;;1.90;;
67696;SDS011;54486;51.442;6.778;2023-08-07T13:21:33;7.00;;;1.80;;
67696;SDS011;54486;51.442;6.778;2023-08-07T13:24:00;7.18;;;1.70;;
67696;SDS011;54486;51.442;6.778;2023-08-07T13:26:27;8.20;;;1.65;;
67696;SDS011;54486;51.442;6.778;2023-08-07T13:28:54;7.40;;;1.90;;
67696;SDS011;54486;51.442;6.778;2023-08-07T13:31:22;7.70;;;1.92;;
67696;SDS011;54486;51.442;6.778;2023-08-07T13:33:51;8.70;;;1.83;;
67696;SDS011;54486;51.442;6.778;2023-08-07T13:36:20;7.40;;;1.55;;
67696;SDS011;54486;51.442;6.778;2023-08-07T13:38:51;7.50;;;1.75;;
67696;SDS011;54486;51.442;6.778;2023-08-07T13:41:18;7.95;;;1.60;;
67696;SDS011;54486;51.442;6.778;2023-08-07T13:43:46;8.77;;;1.80;;
67696;SDS011;54486;51.442;6.778;2023-08-07T13:46:14;6.30;;;1.80;;
67696;SDS011;54486;51.442;6.778;2023-08-07T13:48:41;8.60;;;1.85;;
67696;SDS011;54486;51.442;6.778;2023-08-07T13:51:08;7.63;;;1.80;;
67696;SDS011;54486;51.442;6.778;2023-08-07T13:53:39;8.25;;;1.80;;
67696;SDS011;54486;51.442;6.778;2023-08-07T13:56:07;7.43;;;1.60;;
67696;SDS011;54486;51.442;6.778;2023-08-07T13:58:38;7.70;;;1.80;;
67696;SDS011;54486;51.442;6.778;2023-08-07T14:01:07;7.55;;;1.85;;
67696;SDS011;54486;51.442;6.778;2023-08-07T14:03:35;7.93;;;1.70;;
67696;SDS011;54486;51.442;6.778;2023-08-07T14:06:03;8.25;;;1.50;;
67696;SDS011;54486;51.442;6.778;2023-08-07T14:08:32;6.28;;;1.38;;
67696;SDS011;54486;51.442;6.778;2023-08-07T14:11:02;7.18;;;1.67;;
67696;SDS011;54486;51.442;6.778;2023-08-07T14:13:31;7.20;;;1.58;;
67696;SDS011;54486;51.442;6.778;2023-08-07T14:15:59;9.00;;;1.60;;
67696;SDS011;54486;51.442;6.778;2023-08-07T14:18:28;6.72;;;1.50;;
67696;SDS011;54486;51.442;6.778;2023-08-07T14:20:55;6.20;;;1.40;;
67696;SDS011;54486;51.442;6.778;2023-08-07T14:23:29;6.00;;;1.47;;
67696;SDS011;54486;51.442;6.778;2023-08-07T14:26:00;5.50;;;1.50;;
67696;SDS011;54486;51.442;6.778;2023-08-07T14:28:28;7.50;;;1.50;;
67696;SDS011;54486;51.442;6.778;2023-08-07T14:30:58;6.15;;;1.30;;
67696;SDS011;54486;51.442;6.778;2023-08-07T14:33:27;5.15;;;1.30;;
67696;SDS011;54486;51.442;6.778;2023-08-07T14:35:54;5.75;;;1.38;;
67696;SDS011;54486;51.442;6.778;2023-08-07T14:38:21;5.77;;;1.20;;
67696;SDS011;54486;51.442;6.778;2023-08-07T14:40:48;6.57;;;1.60;;
67696;SDS011;54486;51.442;6.778;2023-08-07T14:43:15;6.00;;;1.42;;
67696;SDS011;54486;51.442;6.778;2023-08-07T14:45:43;5.90;;;1.45;;
67696;SDS011;54486;51.442;6.778;2023-08-07T14:48:10;5.75;;;1.30;;
67696;SDS011;54486;51.442;6.778;2023-08-07T14:50:38;7.47;;;1.45;;
67696;SDS011;54486;51.442;6.778;2023-08-07T14:53:05;5.80;;;1.35;;
67696;SDS011;54486;51.442;6.778;2023-08-07T14:55:33;7.00;;;1.50;;
67696;SDS011;54486;51.442;6.778;2023-08-07T14:58:00;7.20;;;1.52;;
67696;SDS011;54486;51.442;6.778;2023-08-07T15:00:27;6.00;;;1.60;;